Terminal Aerodrome Forecast
Issued by NWS Omaha/Valley, NE

Home | Current Version | Previous Version | Text Only | Print | Product List | Glossary On
Versions: 1 2 3 4 5 6 7 8 9 10 11 12 13 14 15 16
000
FTUS43 KOAX 211738
TAFLNK
TAF
KLNK 211738Z 2118/2218 17012G21KT P6SM FEW015 BKN250
     FM212200 20008KT P6SM VCTS BKN200CB
     FM220100 22007KT P6SM -SHRA BKN090
      TEMPO 2201/2203 4SM TS OVC040CB
     FM220300 26007KT P6SM -SHRA VCTS SCT090CB
     FM220500 29005KT P6SM VCTS BKN130CB
     FM220900 33004KT P6SM BKN110
     FM221200 35010KT P6SM SCT070=

USA.gov is the U.S. government's official web portal to all federal, state and local government web resources and services.